Time,TemperatureF,DewpointF,PressureIn,WindDirection,WindDirectionDegrees,WindSpeedMPH,WindSpeedGustMPH,Humidity,HourlyPrecipIn,Conditions,Clouds,dailyrainin,SolarRadiationWatts/m^2,SoftwareType,DateUTC
2013-03-26 00:22:00,54.0,27.0,-100.00,North,1,6.0,11.0,35,0.00,,,0.00,0.000000,,2013-03-26 07:22:00,
2013-03-26 00:32:00,54.0,27.0,-100.00,North,1,6.0,11.0,35,0.00,,,0.00,0.000000,,2013-03-26 07:32:00,
2013-03-26 00:42:00,54.0,27.0,-100.00,North,1,6.0,11.0,35,0.00,,,0.00,0.000000,,2013-03-26 07:42:00,
2013-03-26 00:52:00,54.0,27.0,-100.00,North,1,6.0,11.0,35,0.00,,,0.00,0.000000,,2013-03-26 07:52:00,
2013-03-26 01:22:00,52.0,26.0,-100.00,SSW,197,1.0,14.0,36,0.00,,,0.00,0.000000,,2013-03-26 08:22:00,
2013-03-26 01:32:00,52.0,26.0,-100.00,SSW,197,1.0,14.0,36,0.00,,,0.00,0.000000,,2013-03-26 08:32:00,
2013-03-26 01:42:00,52.0,26.0,-100.00,SSW,197,1.0,14.0,36,0.00,,,0.00,0.000000,,2013-03-26 08:42:00,
2013-03-26 01:51:00,52.0,26.0,-100.00,SSW,197,1.0,14.0,36,0.00,,,0.00,0.000000,,2013-03-26 08:51:00,
2013-03-26 02:22:00,53.0,22.0,-100.00,NNE,12,10.0,16.0,29,0.00,,,0.00,0.000000,,2013-03-26 09:22:00,
2013-03-26 02:32:00,53.0,22.0,-100.00,NNE,12,10.0,16.0,29,0.00,,,0.00,0.000000,,2013-03-26 09:32:00,
2013-03-26 02:42:00,53.0,22.0,-100.00,NNE,12,10.0,16.0,29,0.00,,,0.00,0.000000,,2013-03-26 09:42:00,
2013-03-26 02:52:00,53.0,22.0,-100.00,NNE,12,10.0,16.0,29,0.00,,,0.00,0.000000,,2013-03-26 09:52:00,
2013-03-26 03:22:00,50.0,21.0,-100.00,North,1,6.0,15.0,31,0.00,,,0.00,0.000000,,2013-03-26 10:22:00,
2013-03-26 03:32:00,50.0,21.0,-100.00,North,1,6.0,15.0,31,0.00,,,0.00,0.000000,,2013-03-26 10:32:00,
2013-03-26 03:42:00,50.0,21.0,-100.00,North,1,6.0,15.0,31,0.00,,,0.00,0.000000,,2013-03-26 10:42:00,
2013-03-26 03:52:00,50.0,21.0,-100.00,North,1,6.0,15.0,31,0.00,,,0.00,0.000000,,2013-03-26 10:52:00,
2013-03-26 04:22:00,49.0,21.0,-100.00,NNW,348,7.0,13.0,33,0.00,,,0.00,0.000000,,2013-03-26 11:22:00,
2013-03-26 04:32:00,49.0,21.0,-100.00,NNW,348,7.0,13.0,33,0.00,,,0.00,0.000000,,2013-03-26 11:32:00,
2013-03-26 04:42:00,49.0,21.0,-100.00,NNW,348,7.0,13.0,33,0.00,,,0.00,0.000000,,2013-03-26 11:42:00,
2013-03-26 04:52:00,49.0,21.0,-100.00,NNW,348,7.0,13.0,33,0.00,,,0.00,0.000000,,2013-03-26 11:52:00,
2013-03-26 05:21:00,49.0,23.0,-100.00,North,8,11.0,15.0,35,0.00,,,0.00,0.000000,,2013-03-26 12:21:00,
2013-03-26 05:32:00,49.0,23.0,-100.00,North,8,11.0,15.0,35,0.00,,,0.00,0.000000,,2013-03-26 12:32:00,
2013-03-26 05:42:00,49.0,23.0,-100.00,North,8,11.0,15.0,35,0.00,,,0.00,0.000000,,2013-03-26 12:42:00,
2013-03-26 05:52:00,49.0,23.0,-100.00,North,8,11.0,15.0,35,0.00,,,0.00,0.000000,,2013-03-26 12:52:00,
2013-03-26 06:22:00,48.0,21.0,-100.00,NNW,347,3.0,16.0,34,0.00,,,0.00,0.000000,,2013-03-26 13:22:00,
2013-03-26 06:32:00,48.0,21.0,-100.00,NNW,347,3.0,16.0,34,0.00,,,0.00,0.000000,,2013-03-26 13:32:00,
2013-03-26 06:42:00,48.0,21.0,-100.00,NNW,347,3.0,16.0,34,0.00,,,0.00,0.000000,,2013-03-26 13:42:00,
2013-03-26 06:52:00,48.0,21.0,-100.00,NNW,347,3.0,16.0,34,0.00,,,0.00,0.000000,,2013-03-26 13:52:00,
2013-03-26 07:22:00,47.0,21.0,-100.00,NNE,14,11.0,13.0,35,0.00,,,0.00,0.000000,,2013-03-26 14:22:00,
2013-03-26 07:32:00,47.0,21.0,-100.00,NNE,14,11.0,13.0,35,0.00,,,0.00,0.000000,,2013-03-26 14:32:00,
2013-03-26 07:42:00,47.0,21.0,-100.00,NNE,14,11.0,13.0,35,0.00,,,0.00,0.000000,,2013-03-26 14:42:00,
2013-03-26 07:52:00,47.0,21.0,-100.00,NNE,14,11.0,13.0,35,0.00,,,0.00,0.000000,,2013-03-26 14:52:00,
2013-03-26 08:22:00,47.0,21.0,-100.00,North,10,13.0,16.0,36,0.00,,,0.00,15.000000,,2013-03-26 15:22:00,
2013-03-26 08:33:00,47.0,21.0,-100.00,North,10,13.0,16.0,36,0.00,,,0.00,15.000000,,2013-03-26 15:33:00,
2013-03-26 08:42:00,47.0,21.0,-100.00,North,10,13.0,16.0,36,0.00,,,0.00,15.000000,,2013-03-26 15:42:00,
2013-03-26 08:52:00,47.0,21.0,-100.00,North,10,13.0,16.0,36,0.00,,,0.00,15.000000,,2013-03-26 15:52:00,
2013-03-26 09:22:00,52.0,22.0,-100.00,NNE,15,6.0,16.0,30,0.00,,,0.00,270.000000,,2013-03-26 16:22:00,
2013-03-26 09:32:00,52.0,22.0,-100.00,NNE,15,6.0,16.0,30,0.00,,,0.00,270.000000,,2013-03-26 16:32:00,
2013-03-26 09:42:00,52.0,22.0,-100.00,NNE,15,6.0,16.0,30,0.00,,,0.00,270.000000,,2013-03-26 16:42:00,
2013-03-26 09:53:00,52.0,22.0,-100.00,NNE,15,6.0,16.0,30,0.00,,,0.00,270.000000,,2013-03-26 16:53:00,
2013-03-26 10:32:00,64.0,24.0,-100.00,North,350,0.0,8.0,22,0.00,,,0.00,553.000000,,2013-03-26 17:32:00,
2013-03-26 10:42:00,64.0,24.0,-100.00,North,350,0.0,8.0,22,0.00,,,0.00,553.000000,,2013-03-26 17:42:00,
2013-03-26 10:52:00,64.0,24.0,-100.00,North,350,0.0,8.0,22,0.00,,,0.00,553.000000,,2013-03-26 17:52:00,
2013-03-26 11:23:00,64.0,31.0,-100.00,South,185,6.0,11.0,29,0.00,,,0.00,751.000000,,2013-03-26 18:23:00,
2013-03-26 11:33:00,64.0,31.0,-100.00,South,185,6.0,11.0,29,0.00,,,0.00,751.000000,,2013-03-26 18:33:00,
2013-03-26 11:42:00,64.0,31.0,-100.00,South,185,6.0,11.0,29,0.00,,,0.00,751.000000,,2013-03-26 18:42:00,
2013-03-26 11:52:00,64.0,31.0,-100.00,South,185,6.0,11.0,29,0.00,,,0.00,751.000000,,2013-03-26 18:52:00,
2013-03-26 12:22:00,68.0,29.0,-100.00,South,175,9.0,15.0,23,0.00,,,0.00,901.000000,,2013-03-26 19:22:00,
2013-03-26 12:32:00,68.0,29.0,-100.00,South,175,9.0,15.0,23,0.00,,,0.00,901.000000,,2013-03-26 19:32:00,
2013-03-26 12:42:00,68.0,29.0,-100.00,South,175,9.0,15.0,23,0.00,,,0.00,901.000000,,2013-03-26 19:42:00,
2013-03-26 12:52:00,68.0,29.0,-100.00,South,175,9.0,15.0,23,0.00,,,0.00,901.000000,,2013-03-26 19:52:00,
2013-03-26 13:22:00,71.0,30.0,-100.00,South,175,5.0,17.0,22,0.00,,,0.00,986.000000,,2013-03-26 20:22:00,
2013-03-26 13:32:00,71.0,30.0,-100.00,South,175,5.0,17.0,22,0.00,,,0.00,986.000000,,2013-03-26 20:32:00,
2013-03-26 13:42:00,71.0,30.0,-100.00,South,175,5.0,17.0,22,0.00,,,0.00,986.000000,,2013-03-26 20:42:00,
2013-03-26 13:52:00,71.0,30.0,-100.00,South,175,5.0,17.0,22,0.00,,,0.00,986.000000,,2013-03-26 20:52:00,
2013-03-26 14:22:00,71.0,28.0,-100.00,NNW,327,18.0,38.0,20,0.00,,,0.00,1001.000000,,2013-03-26 21:22:00,
2013-03-26 14:32:00,71.0,28.0,-100.00,NNW,327,18.0,38.0,20,0.00,,,0.00,1001.000000,,2013-03-26 21:32:00,
2013-03-26 14:42:00,71.0,28.0,-100.00,NNW,327,18.0,38.0,20,0.00,,,0.00,1001.000000,,2013-03-26 21:42:00,
2013-03-26 14:52:00,71.0,28.0,-100.00,NNW,327,18.0,38.0,20,0.00,,,0.00,1001.000000,,2013-03-26 21:52:00,
2013-03-26 15:22:00,69.0,30.0,-100.00,NNW,328,28.0,41.0,23,0.00,,,0.00,934.000000,,2013-03-26 22:22:00,
2013-03-26 15:33:00,69.0,30.0,-100.00,NNW,328,28.0,41.0,23,0.00,,,0.00,934.000000,,2013-03-26 22:33:00,
2013-03-26 15:42:00,69.0,30.0,-100.00,NNW,328,28.0,41.0,23,0.00,,,0.00,934.000000,,2013-03-26 22:42:00,
2013-03-26 16:22:00,70.0,32.0,-100.00,North,352,25.0,43.0,24,0.00,,,0.00,794.000000,,2013-03-26 23:22:00,
2013-03-26 16:32:00,70.0,32.0,-100.00,North,352,25.0,43.0,24,0.00,,,0.00,794.000000,,2013-03-26 23:32:00,
2013-03-26 16:42:00,70.0,32.0,-100.00,North,352,25.0,43.0,24,0.00,,,0.00,794.000000,,2013-03-26 23:42:00,
2013-03-26 16:51:00,70.0,32.0,-100.00,North,352,25.0,43.0,24,0.00,,,0.00,794.000000,,2013-03-26 23:51:00,
2013-03-26 17:22:00,68.0,31.0,-100.00,NNW,333,23.0,41.0,25,0.00,,,0.00,603.000000,,2013-03-27 00:22:00,
2013-03-26 17:32:00,68.0,31.0,-100.00,NNW,333,23.0,41.0,25,0.00,,,0.00,603.000000,,2013-03-27 00:32:00,
2013-03-26 17:42:00,68.0,31.0,-100.00,NNW,333,23.0,41.0,25,0.00,,,0.00,603.000000,,2013-03-27 00:42:00,
2013-03-26 17:52:00,68.0,31.0,-100.00,NNW,333,23.0,41.0,25,0.00,,,0.00,603.000000,,2013-03-27 00:52:00,
2013-03-26 18:22:00,67.0,35.0,-100.00,NNW,347,24.0,34.0,30,0.00,,,0.00,353.000000,,2013-03-27 01:22:00,
2013-03-26 18:32:00,67.0,35.0,-100.00,NNW,347,24.0,34.0,30,0.00,,,0.00,353.000000,,2013-03-27 01:32:00,
2013-03-26 18:42:00,67.0,35.0,-100.00,NNW,347,24.0,34.0,30,0.00,,,0.00,353.000000,,2013-03-27 01:42:00,
2013-03-26 18:52:00,67.0,35.0,-100.00,NNW,347,24.0,34.0,30,0.00,,,0.00,353.000000,,2013-03-27 01:52:00,
2013-03-26 19:22:00,62.0,33.0,-100.00,North,351,20.0,31.0,33,0.00,,,0.00,61.000000,,2013-03-27 02:22:00,
2013-03-26 19:32:00,62.0,33.0,-100.00,North,351,20.0,31.0,33,0.00,,,0.00,61.000000,,2013-03-27 02:32:00,
2013-03-26 19:42:00,62.0,33.0,-100.00,North,351,20.0,31.0,33,0.00,,,0.00,61.000000,,2013-03-27 02:42:00,
2013-03-26 19:52:00,62.0,33.0,-100.00,North,351,20.0,31.0,33,0.00,,,0.00,61.000000,,2013-03-27 02:52:00,
2013-03-26 20:22:00,60.0,34.0,-100.00,NNW,333,9.0,25.0,38,0.00,,,0.00,2.000000,,2013-03-27 03:22:00,
2013-03-26 20:33:00,60.0,34.0,-100.00,NNW,333,9.0,25.0,38,0.00,,,0.00,2.000000,,2013-03-27 03:33:00,
2013-03-26 20:42:00,60.0,34.0,-100.00,NNW,333,9.0,25.0,38,0.00,,,0.00,2.000000,,2013-03-27 03:42:00,
2013-03-26 20:52:00,60.0,34.0,-100.00,NNW,333,9.0,25.0,38,0.00,,,0.00,2.000000,,2013-03-27 03:52:00,
2013-03-26 21:23:00,59.0,37.0,-100.00,North,351,4.0,14.0,44,0.00,,,0.00,0.000000,,2013-03-27 04:23:00,
2013-03-26 21:33:00,59.0,37.0,-100.00,North,351,4.0,14.0,44,0.00,,,0.00,0.000000,,2013-03-27 04:33:00,
2013-03-26 21:42:00,59.0,37.0,-100.00,North,351,4.0,14.0,44,0.00,,,0.00,0.000000,,2013-03-27 04:42:00,
2013-03-26 21:52:00,59.0,37.0,-100.00,North,351,4.0,14.0,44,0.00,,,0.00,0.000000,,2013-03-27 04:52:00,
2013-03-26 22:22:00,58.0,38.0,-100.00,SSE,160,2.0,7.0,47,0.00,,,0.00,0.000000,,2013-03-27 05:22:00,
2013-03-26 22:32:00,58.0,38.0,-100.00,SSE,160,2.0,7.0,47,0.00,,,0.00,0.000000,,2013-03-27 05:32:00,
2013-03-26 22:42:00,58.0,38.0,-100.00,SSE,160,2.0,7.0,47,0.00,,,0.00,0.000000,,2013-03-27 05:42:00,
2013-03-26 22:52:00,58.0,38.0,-100.00,SSE,160,2.0,7.0,47,0.00,,,0.00,0.000000,,2013-03-27 05:52:00,
2013-03-26 23:22:00,55.0,36.0,-100.00,SSE,165,0.0,6.0,49,0.00,,,0.00,0.000000,,2013-03-27 06:22:00,
2013-03-26 23:32:00,55.0,36.0,-100.00,SSE,165,0.0,6.0,49,0.00,,,0.00,0.000000,,2013-03-27 06:32:00,
2013-03-26 23:42:00,55.0,36.0,-100.00,SSE,165,0.0,6.0,49,0.00,,,0.00,0.000000,,2013-03-27 06:42:00,
2013-03-26 23:52:00,55.0,36.0,-100.00,SSE,165,0.0,6.0,49,0.00,,,0.00,0.000000,,2013-03-27 06:52:00,